createdAt,value
2023-11-01T00:01:43.679Z,11.70
2023-11-01T00:04:10.686Z,11.70
2023-11-01T00:06:37.426Z,11.80
2023-11-01T00:09:04.908Z,11.80
2023-11-01T00:11:31.844Z,11.90
2023-11-01T00:13:58.539Z,11.90
2023-11-01T00:16:25.352Z,12.00
2023-11-01T00:18:52.168Z,12.00
2023-11-01T00:21:19.247Z,12.00
2023-11-01T00:23:46.338Z,12.00
2023-11-01T00:26:12.972Z,11.80
2023-11-01T00:28:40.025Z,11.80
2023-11-01T00:31:07.256Z,11.80
2023-11-01T00:33:34.184Z,11.80
2023-11-01T00:36:00.762Z,11.80
2023-11-01T00:38:27.584Z,11.90
2023-11-01T00:40:54.263Z,12.00
2023-11-01T00:43:21.089Z,12.00
2023-11-01T00:45:48.198Z,12.00
2023-11-01T00:48:15.108Z,11.90
2023-11-01T00:50:42.200Z,11.90
2023-11-01T00:53:10.547Z,12.00
2023-11-01T00:55:37.650Z,12.00
2023-11-01T00:58:04.738Z,12.00
2023-11-01T01:00:32.077Z,12.00
2023-11-01T01:02:59.057Z,12.00
2023-11-01T01:05:25.731Z,12.20
2023-11-01T01:07:53.658Z,12.20
2023-11-01T01:10:20.222Z,12.10
2023-11-01T01:12:46.913Z,12.20
2023-11-01T01:15:14.156Z,12.20
2023-11-01T01:17:41.333Z,12.20
2023-11-01T01:20:08.487Z,12.20
2023-11-01T01:22:35.337Z,12.20
2023-11-01T01:25:02.347Z,12.10
2023-11-01T01:27:28.884Z,12.10
2023-11-01T01:29:55.950Z,12.10
2023-11-01T01:32:23.102Z,12.10
2023-11-01T01:34:50.130Z,12.10
2023-11-01T01:37:17.165Z,12.10
2023-11-01T01:39:43.759Z,12.00
2023-11-01T01:42:10.510Z,12.00
2023-11-01T01:44:37.435Z,12.00
2023-11-01T01:47:04.813Z,12.10
2023-11-01T01:49:37.144Z,12.10
2023-11-01T01:52:07.346Z,12.10
2023-11-01T01:54:34.900Z,12.10
2023-11-01T01:57:01.748Z,12.10
2023-11-01T01:59:28.934Z,12.20
2023-11-01T02:01:57.071Z,12.20
2023-11-01T02:04:25.389Z,12.20
2023-11-01T02:06:53.190Z,12.20
2023-11-01T02:09:20.132Z,12.20
2023-11-01T02:11:46.955Z,12.20
2023-11-01T02:14:14.849Z,12.20
2023-11-01T02:16:42.246Z,12.20
2023-11-01T02:19:09.937Z,12.20
2023-11-01T02:21:37.681Z,12.20
2023-11-01T02:24:05.005Z,12.20
2023-11-01T02:26:33.233Z,12.30
2023-11-01T02:29:00.102Z,12.30
2023-11-01T02:31:27.265Z,12.30
2023-11-01T02:33:54.140Z,12.30
2023-11-01T02:36:21.173Z,12.30
2023-11-01T02:38:48.235Z,12.30
2023-11-01T02:41:15.738Z,12.30
2023-11-01T02:43:42.492Z,12.30
2023-11-01T02:46:09.480Z,12.30
2023-11-01T02:48:38.930Z,12.30
2023-11-01T02:51:05.609Z,12.30
2023-11-01T02:53:32.541Z,12.30
2023-11-01T02:55:59.319Z,12.30
2023-11-01T02:58:26.363Z,12.30
2023-11-01T03:00:53.595Z,12.40
2023-11-01T03:03:20.548Z,12.40
2023-11-01T03:05:47.601Z,12.40
2023-11-01T03:08:15.658Z,12.40
2023-11-01T03:10:42.265Z,12.40
2023-11-01T03:13:09.047Z,12.50
2023-11-01T03:15:36.554Z,12.60
2023-11-01T03:18:03.238Z,12.50
2023-11-01T03:20:30.096Z,12.60
2023-11-01T03:22:57.223Z,12.50
2023-11-01T03:25:24.790Z,12.50
2023-11-01T03:27:52.406Z,12.50
2023-11-01T03:30:19.582Z,12.50
2023-11-01T03:32:46.760Z,12.50
2023-11-01T03:35:16.136Z,12.50
2023-11-01T03:37:43.617Z,12.50
2023-11-01T03:40:10.253Z,12.50
2023-11-01T03:42:36.784Z,12.50
2023-11-01T03:45:04.386Z,12.60
2023-11-01T03:47:31.609Z,12.60
2023-11-01T03:49:58.927Z,12.60
2023-11-01T03:52:26.422Z,12.60
2023-11-01T03:54:53.066Z,12.60
2023-11-01T03:57:20.794Z,12.60
2023-11-01T03:59:47.922Z,12.60
2023-11-01T04:02:14.558Z,12.60
2023-11-01T04:04:41.418Z,12.60
2023-11-01T04:07:10.216Z,12.60
2023-11-01T04:09:36.725Z,12.60
2023-11-01T04:12:03.597Z,12.60
2023-11-01T04:14:33.195Z,12.60
2023-11-01T04:17:01.093Z,12.60
2023-11-01T04:19:27.726Z,12.60
2023-11-01T04:21:54.772Z,12.60
2023-11-01T04:24:21.930Z,12.60
2023-11-01T04:26:48.747Z,12.60
2023-11-01T04:29:15.639Z,12.60
2023-11-01T04:31:42.351Z,12.60
2023-11-01T04:34:08.962Z,12.60
2023-11-01T04:36:38.471Z,12.60
2023-11-01T04:39:05.300Z,12.60
2023-11-01T04:41:31.855Z,12.70
2023-11-01T04:43:58.985Z,12.70
2023-11-01T04:46:26.125Z,12.70
2023-11-01T04:48:53.066Z,12.80
2023-11-01T04:51:20.089Z,12.70
2023-11-01T04:53:47.678Z,12.70
2023-11-01T04:56:14.422Z,12.60
2023-11-01T04:58:41.948Z,12.70
2023-11-01T05:01:09.306Z,12.70
2023-11-01T05:03:37.697Z,12.70
2023-11-01T05:06:07.330Z,12.70
2023-11-01T05:08:35.445Z,12.70
2023-11-01T05:11:02.067Z,12.70
2023-11-01T05:13:29.167Z,12.70
2023-11-01T05:15:57.080Z,12.70
2023-11-01T05:18:25.430Z,12.70
2023-11-01T05:20:52.971Z,12.80
2023-11-01T05:23:20.533Z,12.70
2023-11-01T05:25:49.947Z,12.80
2023-11-01T05:28:17.238Z,12.80
2023-11-01T05:30:43.914Z,12.80
2023-11-01T05:33:10.623Z,12.80
2023-11-01T05:35:38.250Z,12.80
2023-11-01T05:38:06.174Z,12.80
2023-11-01T05:40:32.764Z,12.80
2023-11-01T05:42:59.975Z,12.80
2023-11-01T05:45:26.998Z,12.80
2023-11-01T05:47:54.676Z,12.80
2023-11-01T05:50:24.785Z,12.80
2023-11-01T05:52:55.966Z,12.90
2023-11-01T05:55:30.618Z,12.90
2023-11-01T05:58:12.951Z,12.90
2023-11-01T06:00:40.245Z,12.90
2023-11-01T06:03:08.513Z,12.90
2023-11-01T06:05:36.719Z,12.90
2023-11-01T06:08:04.577Z,13.00
2023-11-01T06:10:47.427Z,13.00
2023-11-01T06:13:29.377Z,13.00
2023-11-01T06:16:00.548Z,13.00
2023-11-01T06:18:27.626Z,13.00
2023-11-01T06:20:54.498Z,13.00
2023-11-01T06:23:21.374Z,13.00
2023-11-01T06:25:47.986Z,13.10
2023-11-01T06:28:15.942Z,13.10
2023-11-01T06:30:43.661Z,13.10
2023-11-01T06:33:10.486Z,13.10
2023-11-01T06:35:38.204Z,13.10
2023-11-01T06:38:05.225Z,13.10
2023-11-01T06:40:32.413Z,13.10
2023-11-01T06:42:59.030Z,13.10
2023-11-01T06:45:27.224Z,13.20
2023-11-01T06:47:54.228Z,13.20
2023-11-01T06:50:21.929Z,13.10
2023-11-01T06:52:49.157Z,13.10
2023-11-01T06:55:17.545Z,13.10
2023-11-01T06:57:44.422Z,13.20
2023-11-01T07:00:11.991Z,13.20
2023-11-01T07:02:38.829Z,13.20
2023-11-01T07:05:06.574Z,13.20
2023-11-01T07:07:33.957Z,13.20
2023-11-01T07:10:01.507Z,13.20
2023-11-01T07:12:28.113Z,13.20
2023-11-01T07:14:54.960Z,13.30
2023-11-01T07:17:21.997Z,13.20
2023-11-01T07:19:48.617Z,13.30
2023-11-01T07:22:15.622Z,13.30
2023-11-01T07:24:42.300Z,13.30
2023-11-01T07:27:09.144Z,13.30
2023-11-01T07:29:37.281Z,13.40
2023-11-01T07:32:04.269Z,13.40
2023-11-01T07:34:31.273Z,13.40
2023-11-01T07:36:58.281Z,13.40
2023-11-01T07:39:24.903Z,13.50
2023-11-01T07:41:51.665Z,13.50
2023-11-01T07:44:20.366Z,13.50
2023-11-01T07:46:47.419Z,13.50
2023-11-01T07:49:13.960Z,13.50
2023-11-01T07:51:42.312Z,13.50
2023-11-01T07:54:10.812Z,13.50
2023-11-01T07:56:37.508Z,13.60
2023-11-01T07:59:04.485Z,13.60
2023-11-01T08:01:33.110Z,13.60
2023-11-01T08:03:59.862Z,13.60
2023-11-01T08:06:27.567Z,13.70
2023-11-01T08:08:54.442Z,13.70
2023-11-01T08:11:21.764Z,13.80
2023-11-01T08:13:49.179Z,13.70
2023-11-01T08:16:16.358Z,13.80
2023-11-01T08:18:43.188Z,13.80
2023-11-01T08:21:10.640Z,13.90
2023-11-01T08:23:37.249Z,14.00
2023-11-01T08:26:06.551Z,14.10
2023-11-01T08:28:33.347Z,14.10
2023-11-01T08:31:01.441Z,14.10
2023-11-01T08:33:29.069Z,14.20
2023-11-01T08:35:56.736Z,14.20
2023-11-01T08:38:23.687Z,14.30
2023-11-01T08:40:50.456Z,14.30
2023-11-01T08:43:21.194Z,14.30
2023-11-01T08:45:47.703Z,14.30
2023-11-01T08:48:14.549Z,14.30
2023-11-01T08:50:41.917Z,14.40
2023-11-01T08:53:09.004Z,14.40
2023-11-01T08:55:36.837Z,14.40
2023-11-01T08:58:03.682Z,14.40
2023-11-01T09:00:39.446Z,14.40
2023-11-01T09:03:12.726Z,14.40
2023-11-01T09:05:39.483Z,14.40
2023-11-01T09:08:07.433Z,14.40
2023-11-01T09:10:34.431Z,14.50
2023-11-01T09:13:01.256Z,14.50
2023-11-01T09:15:28.210Z,14.40
2023-11-01T09:17:55.252Z,14.40
2023-11-01T09:20:21.973Z,14.50
2023-11-01T09:22:48.537Z,14.50
2023-11-01T09:25:15.656Z,14.50
2023-11-01T09:27:42.232Z,14.60
2023-11-01T09:30:10.029Z,14.70
2023-11-01T09:32:41.034Z,14.70
2023-11-01T09:35:13.910Z,14.70
2023-11-01T09:37:41.475Z,14.80
2023-11-01T09:40:13.005Z,14.80
2023-11-01T09:42:41.940Z,14.80
2023-11-01T09:45:10.844Z,14.80
2023-11-01T09:47:38.476Z,14.80
2023-11-01T09:50:07.580Z,14.90
2023-11-01T09:52:36.130Z,15.00
2023-11-01T09:55:05.966Z,15.10
2023-11-01T09:57:37.595Z,15.10
2023-11-01T10:00:05.140Z,15.10
2023-11-01T10:02:31.860Z,15.10
2023-11-01T10:04:59.188Z,15.20
2023-11-01T10:07:26.375Z,15.10
2023-11-01T10:09:53.358Z,15.00
2023-11-01T10:12:20.548Z,15.00
2023-11-01T10:14:47.497Z,14.90
2023-11-01T10:17:14.006Z,14.90
2023-11-01T10:19:44.674Z,14.90
2023-11-01T10:22:13.598Z,14.80
2023-11-01T10:24:41.434Z,14.80
2023-11-01T10:27:08.345Z,14.80
2023-11-01T10:29:46.079Z,14.80
2023-11-01T10:32:15.236Z,14.80
2023-11-01T10:34:42.083Z,14.90
2023-11-01T10:37:10.010Z,14.90
2023-11-01T10:39:40.079Z,14.80
2023-11-01T10:42:09.080Z,14.80
2023-11-01T10:44:35.904Z,14.80
2023-11-01T10:47:03.832Z,14.80
2023-11-01T10:49:31.715Z,14.80
2023-11-01T10:52:00.527Z,14.80
2023-11-01T10:54:28.713Z,14.90
2023-11-01T10:56:55.713Z,14.90
2023-11-01T10:59:44.332Z,14.90
2023-11-01T11:02:19.898Z,14.90
2023-11-01T11:05:28.637Z,15.00
2023-11-01T11:07:58.024Z,15.10
2023-11-01T11:10:29.308Z,15.10
2023-11-01T11:13:11.866Z,15.10
2023-11-01T11:16:08.236Z,15.20
2023-11-01T11:18:44.999Z,15.30
2023-11-01T11:21:49.854Z,15.40
2023-11-01T11:24:40.433Z,15.40
2023-11-01T11:27:07.655Z,15.40
2023-11-01T11:29:43.921Z,15.40
2023-11-01T11:32:22.420Z,15.40
2023-11-01T11:34:49.568Z,15.40
2023-11-01T11:37:18.300Z,15.40
2023-11-01T11:40:09.022Z,15.50
2023-11-01T11:42:42.140Z,15.60
2023-11-01T11:45:13.653Z,15.80
2023-11-01T11:47:43.972Z,15.80
2023-11-01T11:50:11.308Z,15.90
2023-11-01T11:52:39.647Z,15.90
2023-11-01T11:55:09.066Z,15.90
2023-11-01T11:57:35.853Z,16.10
2023-11-01T12:00:09.186Z,16.00
2023-11-01T12:02:36.341Z,15.90
2023-11-01T12:05:07.651Z,16.00
2023-11-01T12:07:42.500Z,16.10
2023-11-01T12:10:11.338Z,16.10
2023-11-01T12:12:38.177Z,15.90
2023-11-01T12:15:07.908Z,16.10
2023-11-01T12:17:35.609Z,15.90
2023-11-01T12:20:04.655Z,16.00
2023-11-01T12:22:35.735Z,16.00
2023-11-01T12:25:03.174Z,16.00
2023-11-01T12:27:31.937Z,16.00
2023-11-01T12:29:58.901Z,16.00
2023-11-01T12:32:26.004Z,16.10
2023-11-01T12:34:52.896Z,16.20
2023-11-01T12:37:25.239Z,16.20
2023-11-01T12:40:14.930Z,16.20
2023-11-01T12:42:56.133Z,16.10
2023-11-01T12:45:24.928Z,16.00
2023-11-01T12:47:59.098Z,15.90
2023-11-01T12:50:28.926Z,15.90
2023-11-01T12:52:55.568Z,15.80
2023-11-01T12:55:22.865Z,15.80
2023-11-01T12:57:51.478Z,15.90
2023-11-01T13:00:22.450Z,15.90
2023-11-01T13:02:49.498Z,15.90
2023-11-01T13:05:16.566Z,15.90
2023-11-01T13:07:46.191Z,15.90
2023-11-01T13:10:14.837Z,15.90
2023-11-01T13:12:43.972Z,15.90
2023-11-01T13:15:10.963Z,15.90
2023-11-01T13:17:38.107Z,15.80
2023-11-01T13:20:05.427Z,15.90
2023-11-01T13:22:32.736Z,15.90
2023-11-01T13:25:01.045Z,16.00
2023-11-01T13:27:28.063Z,16.00
2023-11-01T13:29:54.861Z,16.10
2023-11-01T13:32:21.927Z,16.00
2023-11-01T13:34:49.280Z,16.10
2023-11-01T13:37:17.309Z,16.20
2023-11-01T13:39:44.597Z,16.10
2023-11-01T13:42:15.628Z,16.10
2023-11-01T13:44:45.381Z,16.00
2023-11-01T13:47:12.520Z,15.90
2023-11-01T13:49:43.436Z,15.80
2023-11-01T13:52:12.856Z,15.80
2023-11-01T13:54:40.487Z,15.80
2023-11-01T13:57:07.201Z,15.70
2023-11-01T13:59:37.953Z,15.80
2023-11-01T14:02:05.145Z,15.80
2023-11-01T14:04:32.894Z,15.80
2023-11-01T14:06:59.837Z,15.80
2023-11-01T14:09:26.821Z,15.80
2023-11-01T14:11:54.064Z,15.70
2023-11-01T14:14:21.504Z,15.70
2023-11-01T14:16:48.788Z,15.70
2023-11-01T14:19:15.399Z,15.70
2023-11-01T14:21:42.139Z,15.70
2023-11-01T14:24:10.318Z,15.70
2023-11-01T14:26:37.427Z,15.70
2023-11-01T14:29:04.182Z,15.60
2023-11-01T14:31:31.018Z,15.60
2023-11-01T14:33:58.746Z,15.60
2023-11-01T14:36:25.635Z,15.60
2023-11-01T14:38:52.560Z,15.60
2023-11-01T14:41:19.164Z,15.60
2023-11-01T14:43:46.881Z,15.50
2023-11-01T14:46:14.935Z,15.60
2023-11-01T14:48:44.596Z,15.60
2023-11-01T14:51:11.359Z,15.50
2023-11-01T14:53:38.753Z,15.50
2023-11-01T14:56:17.956Z,15.50
2023-11-01T14:58:48.364Z,15.50
2023-11-01T15:01:15.935Z,15.40
2023-11-01T15:03:43.373Z,15.40
2023-11-01T15:06:12.485Z,15.50
2023-11-01T15:08:40.007Z,15.50
2023-11-01T15:11:06.729Z,15.50
2023-11-01T15:13:33.657Z,15.40
2023-11-01T15:16:01.392Z,15.40
2023-11-01T15:18:28.915Z,15.40
2023-11-01T15:20:56.976Z,15.40
2023-11-01T15:23:23.665Z,15.40
2023-11-01T15:25:50.358Z,15.40
2023-11-01T15:28:17.428Z,15.50
2023-11-01T15:30:44.140Z,15.40
2023-11-01T15:33:12.028Z,15.40
2023-11-01T15:35:38.992Z,15.40
2023-11-01T15:38:06.180Z,15.40
2023-11-01T15:40:33.065Z,15.40
2023-11-01T15:43:01.340Z,15.40
2023-11-01T15:45:31.334Z,15.40
2023-11-01T15:47:59.068Z,15.40
2023-11-01T15:50:26.496Z,15.40
2023-11-01T15:52:53.425Z,15.40
2023-11-01T15:55:22.027Z,15.40
2023-11-01T15:57:50.598Z,15.40
2023-11-01T16:00:18.561Z,15.40
2023-11-01T16:02:46.247Z,15.40
2023-11-01T16:05:13.542Z,15.30
2023-11-01T16:07:40.602Z,15.40
2023-11-01T16:10:07.833Z,15.40
2023-11-01T16:12:35.741Z,15.20
2023-11-01T16:15:02.682Z,15.20
2023-11-01T16:17:29.533Z,15.30
2023-11-01T16:19:57.797Z,15.30
2023-11-01T16:22:26.536Z,15.30
2023-11-01T16:24:53.543Z,15.30
2023-11-01T16:27:23.135Z,15.30
2023-11-01T16:29:50.501Z,15.30
2023-11-01T16:32:17.101Z,15.30
2023-11-01T16:34:46.057Z,15.30
2023-11-01T16:37:13.748Z,15.30
2023-11-01T16:39:41.523Z,15.20
2023-11-01T16:42:09.128Z,15.20
2023-11-01T16:44:35.823Z,15.20
2023-11-01T16:47:02.420Z,15.10
2023-11-01T16:49:29.575Z,15.10
2023-11-01T16:51:56.295Z,15.00
2023-11-01T16:54:22.843Z,15.00
2023-11-01T16:56:51.224Z,15.00
2023-11-01T16:59:18.218Z,15.00
2023-11-01T17:01:44.819Z,15.00
2023-11-01T17:04:12.165Z,15.00
2023-11-01T17:06:38.830Z,14.90
2023-11-01T17:09:07.793Z,15.00
2023-11-01T17:11:34.810Z,14.90
2023-11-01T17:14:01.984Z,14.90
2023-11-01T17:16:28.921Z,14.90
2023-11-01T17:18:56.676Z,14.80
2023-11-01T17:21:23.745Z,14.80
2023-11-01T17:23:53.203Z,14.80
2023-11-01T17:26:26.515Z,14.80
2023-11-01T17:28:55.200Z,14.80
2023-11-01T17:31:59.081Z,14.70
2023-11-01T17:34:29.300Z,14.60
2023-11-01T17:37:00.953Z,14.60
2023-11-01T17:39:29.602Z,14.50
2023-11-01T17:42:00.515Z,14.50
2023-11-01T17:44:35.456Z,14.40
2023-11-01T17:47:08.065Z,14.40
2023-11-01T17:49:49.644Z,14.40
2023-11-01T17:52:23.683Z,14.50
2023-11-01T17:54:52.191Z,14.50
2023-11-01T17:57:21.968Z,14.60
2023-11-01T17:59:49.162Z,14.60
2023-11-01T18:02:28.609Z,14.70
2023-11-01T18:05:00.145Z,14.80
2023-11-01T18:07:28.725Z,14.90
2023-11-01T18:09:58.232Z,15.00
2023-11-01T18:12:24.878Z,15.00
2023-11-01T18:14:55.133Z,15.00
2023-11-01T18:17:22.789Z,15.10
2023-11-01T18:19:49.388Z,15.20
2023-11-01T18:22:42.824Z,15.20
2023-11-01T18:25:28.154Z,15.20
2023-11-01T18:27:59.997Z,15.20
2023-11-01T18:30:27.519Z,15.20
2023-11-01T18:32:54.302Z,15.20
2023-11-01T18:35:25.023Z,15.10
2023-11-01T18:37:54.475Z,15.10
2023-11-01T18:40:25.149Z,15.00
2023-11-01T18:42:56.898Z,15.00
2023-11-01T18:45:24.512Z,15.00
2023-11-01T18:47:53.276Z,14.90
2023-11-01T18:50:21.120Z,14.90
2023-11-01T18:52:48.157Z,14.80
2023-11-01T18:55:24.806Z,14.50
2023-11-01T18:57:51.977Z,14.20
2023-11-01T19:00:25.121Z,13.90
2023-11-01T19:03:04.183Z,13.80
2023-11-01T19:05:33.138Z,13.50
2023-11-01T19:08:01.133Z,13.40
2023-11-01T19:10:33.484Z,13.30
2023-11-01T19:13:00.567Z,13.20
2023-11-01T19:15:37.412Z,13.10
2023-11-01T19:18:05.142Z,13.10
2023-11-01T19:20:31.989Z,13.00
2023-11-01T19:22:58.606Z,13.10
2023-11-01T19:25:25.431Z,12.90
2023-11-01T19:27:52.353Z,12.90
2023-11-01T19:30:19.159Z,12.90
2023-11-01T19:32:46.119Z,12.80
2023-11-01T19:35:13.287Z,12.80
2023-11-01T19:37:41.269Z,12.80
2023-11-01T19:40:09.892Z,12.70
2023-11-01T19:42:37.054Z,12.80
2023-11-01T19:45:05.144Z,12.60
2023-11-01T19:47:32.574Z,12.60
2023-11-01T19:49:59.423Z,12.60
2023-11-01T19:52:25.972Z,12.60
2023-11-01T19:54:53.666Z,12.60
2023-11-01T19:57:20.636Z,12.50
2023-11-01T19:59:49.304Z,12.50
2023-11-01T20:02:17.054Z,12.60
2023-11-01T20:04:44.257Z,12.40
2023-11-01T20:07:11.101Z,12.50
2023-11-01T20:09:40.824Z,12.40
2023-11-01T20:12:07.715Z,12.40
2023-11-01T20:14:34.670Z,12.40
2023-11-01T20:17:05.936Z,12.40
2023-11-01T20:19:32.815Z,12.40
2023-11-01T20:22:00.141Z,12.40
2023-11-01T20:24:26.932Z,12.30
2023-11-01T20:26:53.726Z,12.30
2023-11-01T20:29:20.542Z,12.30
2023-11-01T20:31:47.611Z,12.30
2023-11-01T20:34:14.233Z,12.20
2023-11-01T20:36:41.442Z,12.30
2023-11-01T20:39:10.770Z,12.30
2023-11-01T20:41:37.616Z,12.40
2023-11-01T20:44:05.970Z,12.40
2023-11-01T20:46:33.086Z,12.40
2023-11-01T20:49:11.372Z,12.40
2023-11-01T20:51:39.228Z,12.50
2023-11-01T20:54:09.055Z,12.50
2023-11-01T20:56:37.822Z,12.50
2023-11-01T20:59:05.888Z,12.50
2023-11-01T21:01:32.492Z,12.50
2023-11-01T21:03:59.444Z,12.50
2023-11-01T21:06:26.678Z,12.50
2023-11-01T21:08:54.084Z,12.50
2023-11-01T21:11:20.796Z,12.50
2023-11-01T21:13:47.815Z,12.60
2023-11-01T21:16:14.396Z,12.60
2023-11-01T21:18:41.035Z,12.50
2023-11-01T21:21:11.443Z,12.60
2023-11-01T21:23:38.445Z,12.60
2023-11-01T21:26:05.180Z,12.60
2023-11-01T21:28:32.134Z,12.70
2023-11-01T21:31:00.031Z,12.70
2023-11-01T21:33:26.954Z,12.60
2023-11-01T21:35:54.853Z,12.60
2023-11-01T21:38:21.961Z,12.70
2023-11-01T21:40:48.903Z,12.70
2023-11-01T21:43:18.226Z,12.70
2023-11-01T21:45:47.265Z,12.60
2023-11-01T21:48:20.520Z,12.60
2023-11-01T21:50:50.542Z,12.60
2023-11-01T21:53:17.371Z,12.60
2023-11-01T21:55:50.889Z,12.60
2023-11-01T21:58:25.378Z,12.60
2023-11-01T22:01:00.232Z,12.60
2023-11-01T22:03:43.179Z,12.60
2023-11-01T22:06:22.000Z,12.60
2023-11-01T22:09:02.252Z,12.60
2023-11-01T22:11:31.109Z,12.60
2023-11-01T22:14:01.247Z,12.60
2023-11-01T22:16:30.588Z,12.60
2023-11-01T22:19:02.116Z,12.60
2023-11-01T22:21:34.569Z,12.60
2023-11-01T22:24:06.244Z,12.70
2023-11-01T22:26:33.626Z,12.60
2023-11-01T22:29:10.195Z,12.70
2023-11-01T22:31:53.529Z,12.60
2023-11-01T22:34:23.610Z,12.60
2023-11-01T22:36:54.132Z,12.60
2023-11-01T22:39:41.543Z,12.60
2023-11-01T22:42:13.448Z,12.60
2023-11-01T22:44:42.513Z,12.60
2023-11-01T22:47:10.109Z,12.60
2023-11-01T22:49:37.214Z,12.70
2023-11-01T22:52:04.297Z,12.70
2023-11-01T22:54:31.087Z,12.70
2023-11-01T22:56:57.763Z,12.70
2023-11-01T22:59:24.609Z,12.70
2023-11-01T23:01:51.344Z,12.60
2023-11-01T23:04:19.592Z,12.60
2023-11-01T23:06:47.440Z,12.60
2023-11-01T23:09:14.815Z,12.60
2023-11-01T23:11:41.693Z,12.60
2023-11-01T23:14:11.084Z,12.60
2023-11-01T23:16:39.254Z,12.60
2023-11-01T23:19:10.878Z,12.60
2023-11-01T23:21:38.576Z,12.60
2023-11-01T23:24:12.813Z,12.60
2023-11-01T23:26:58.343Z,12.60
2023-11-01T23:29:37.051Z,12.60
2023-11-01T23:32:12.312Z,12.60
2023-11-01T23:34:50.103Z,12.60
2023-11-01T23:37:38.500Z,12.60
2023-11-01T23:40:09.888Z,12.60
2023-11-01T23:42:38.400Z,12.60
2023-11-01T23:45:31.193Z,12.60
2023-11-01T23:48:06.602Z,12.60
2023-11-01T23:50:42.846Z,12.60
2023-11-01T23:53:22.124Z,12.60
2023-11-01T23:55:51.934Z,12.60
2023-11-01T23:58:30.308Z,12.60
